Time;durP1;ratioP1;P1;durP2;ratioP2;P2;SDS_P1;SDS_P2;PMS_P1;PMS_P2;Temp;Humidity;BMP_temperature;BMP_pressure;BME280_temperature;BME280_humidity;BME280_pressure;Samples;Min_cycle;Max_cycle;Signal;HPM_P1;HPM_P2
2022/03/01 00:02:11;;;;;;;14.67;10.87;;;7.10;54.10;;;;;;5074224;28;21014;-68
2022/03/01 00:04:38;;;;;;;13.50;10.40;;;7.00;54.40;;;;;;5074379;28;20476;-68
2022/03/01 00:07:07;;;;;;;17.87;11.03;;;7.00;54.80;;;;;;5074301;28;20782;-68
2022/03/01 00:09:34;;;;;;;13.27;10.60;;;7.00;55.40;;;;;;5074319;28;20452;-69
2022/03/01 00:12:01;;;;;;;14.30;10.37;;;6.90;56.00;;;;;;5074280;28;20472;-68
2022/03/01 00:14:29;;;;;;;14.87;10.50;;;6.90;56.50;;;;;;5074332;28;20855;-68
2022/03/01 00:16:56;;;;;;;14.03;11.03;;;6.90;56.30;;;;;;5074283;28;20472;-68
2022/03/01 00:19:23;;;;;;;13.90;10.80;;;6.90;56.20;;;;;;5074734;28;20790;-68
2022/03/01 00:21:50;;;;;;;13.90;11.40;;;6.90;56.20;;;;;;5073944;28;20983;-69
2022/03/01 00:24:17;;;;;;;15.67;11.10;;;6.90;56.20;;;;;;5073022;28;20472;-69
2022/03/01 00:26:43;;;;;;;16.00;11.73;;;6.90;56.30;;;;;;5074243;28;20449;-69
2022/03/01 00:29:10;;;;;;;14.90;11.70;;;6.90;56.20;;;;;;5073944;28;20445;-69
2022/03/01 00:31:38;;;;;;;13.63;10.70;;;6.90;56.10;;;;;;5074072;28;20460;-69
2022/03/01 00:34:05;;;;;;;19.03;13.07;;;6.90;55.90;;;;;;5073937;28;20441;-69
2022/03/01 00:36:32;;;;;;;17.93;11.87;;;6.80;55.80;;;;;;5073783;28;20452;-69
2022/03/01 00:38:58;;;;;;;17.23;11.90;;;6.80;56.00;;;;;;5073692;28;20448;-68
2022/03/01 00:41:25;;;;;;;20.17;15.70;;;6.80;56.30;;;;;;5073969;28;20839;-68
2022/03/01 00:43:52;;;;;;;22.60;14.30;;;6.80;56.40;;;;;;5074747;28;20484;-68
2022/03/01 00:46:19;;;;;;;17.63;12.37;;;6.80;56.50;;;;;;5073840;28;20449;-68
2022/03/01 00:48:48;;;;;;;17.20;12.90;;;6.80;56.70;;;;;;5073967;28;20943;-68
2022/03/01 00:51:14;;;;;;;16.70;11.73;;;6.80;56.80;;;;;;5073533;28;20464;-68
2022/03/01 00:53:41;;;;;;;14.67;10.70;;;6.70;56.70;;;;;;5073883;28;20445;-68
2022/03/01 00:56:08;;;;;;;22.30;13.50;;;6.70;57.20;;;;;;5073914;28;20449;-68
2022/03/01 00:58:34;;;;;;;23.40;14.50;;;6.70;57.70;;;;;;5073808;28;20444;-68
2022/03/01 01:01:01;;;;;;;20.20;14.60;;;6.70;57.80;;;;;;5073600;28;20824;-68
2022/03/01 01:03:28;;;;;;;19.03;13.40;;;6.70;58.20;;;;;;5074068;28;20472;-68
2022/03/01 01:05:56;;;;;;;21.97;13.30;;;6.70;58.20;;;;;;5074161;28;20960;-68
2022/03/01 01:08:23;;;;;;;27.23;13.43;;;6.60;58.30;;;;;;5074280;28;20970;-68
2022/03/01 01:10:50;;;;;;;17.33;13.80;;;6.60;58.60;;;;;;5075066;28;20880;-68
2022/03/01 01:13:17;;;;;;;20.30;14.47;;;6.60;58.70;;;;;;5074702;28;20468;-68
2022/03/01 01:15:44;;;;;;;21.83;13.63;;;6.60;58.20;;;;;;5074371;28;20449;-68
2022/03/01 01:18:11;;;;;;;17.07;13.80;;;6.70;57.40;;;;;;5074265;28;20499;-68
2022/03/01 01:20:38;;;;;;;19.87;14.87;;;6.70;56.90;;;;;;5073863;28;20480;-68
2022/03/01 01:23:06;;;;;;;17.87;13.37;;;6.70;56.70;;;;;;5073416;28;20448;-68
2022/03/01 01:25:34;;;;;;;19.43;13.23;;;6.70;56.60;;;;;;5073519;28;20834;-68
2022/03/01 01:28:02;;;;;;;17.33;13.57;;;6.70;56.50;;;;;;5073317;28;20449;-68
2022/03/01 01:30:31;;;;;;;19.33;14.20;;;6.60;56.50;;;;;;5073385;28;20479;-68
2022/03/01 01:32:58;;;;;;;17.93;13.20;;;6.50;56.40;;;;;;5073326;28;20444;-69
2022/03/01 01:35:26;;;;;;;19.40;13.40;;;6.50;56.80;;;;;;5075159;28;20436;-68
2022/03/01 01:37:54;;;;;;;16.83;13.10;;;6.50;57.20;;;;;;5077430;28;20445;-68
2022/03/01 01:40:24;;;;;;;17.27;13.20;;;6.40;57.40;;;;;;5077763;28;20453;-68
2022/03/01 01:42:51;;;;;;;16.67;13.10;;;6.30;57.80;;;;;;5077410;28;20440;-68
2022/03/01 01:45:18;;;;;;;16.03;12.50;;;6.30;58.30;;;;;;5076970;28;20881;-68
2022/03/01 01:47:45;;;;;;;16.20;12.00;;;6.30;58.60;;;;;;5077213;28;20448;-68
2022/03/01 01:50:12;;;;;;;18.30;13.60;;;6.30;58.70;;;;;;5077054;28;20466;-68
2022/03/01 01:52:39;;;;;;;21.40;13.90;;;6.30;58.50;;;;;;5077140;28;20445;-68
2022/03/01 01:55:06;;;;;;;16.20;11.83;;;6.30;58.50;;;;;;5077025;28;20451;-68
2022/03/01 01:57:34;;;;;;;19.83;14.10;;;6.30;58.60;;;;;;5077047;28;20470;-68
2022/03/01 02:00:01;;;;;;;16.70;14.00;;;6.30;59.10;;;;;;5076844;28;20491;-68
2022/03/01 02:02:28;;;;;;;17.13;13.83;;;6.30;59.30;;;;;;5076920;28;20475;-68
2022/03/01 02:04:55;;;;;;;16.23;11.93;;;6.20;59.30;;;;;;5076728;28;20484;-68
2022/03/01 02:07:22;;;;;;;16.60;13.50;;;6.20;59.30;;;;;;5076368;28;20868;-68
2022/03/01 02:09:48;;;;;;;20.97;13.57;;;6.20;59.40;;;;;;5076687;28;20834;-68
2022/03/01 02:12:15;;;;;;;17.90;13.83;;;6.10;59.50;;;;;;5076704;28;20440;-69
2022/03/01 02:14:44;;;;;;;17.70;13.47;;;6.10;59.60;;;;;;5076591;28;20443;-69
2022/03/01 02:17:12;;;;;;;20.07;14.20;;;6.10;59.80;;;;;;5077445;28;20476;-69
2022/03/01 02:19:39;;;;;;;25.63;16.30;;;6.00;60.20;;;;;;5076536;28;20441;-69
2022/03/01 02:22:08;;;;;;;20.40;14.43;;;6.00;61.70;;;;;;5077780;28;20487;-68
2022/03/01 02:24:36;;;;;;;19.63;14.63;;;5.90;63.50;;;;;;5075988;28;20484;-69
2022/03/01 02:27:05;;;;;;;19.43;14.17;;;5.90;63.30;;;;;;5076399;28;20444;-69
2022/03/01 02:29:32;;;;;;;18.83;14.77;;;6.00;62.30;;;;;;5076280;28;20535;-69
2022/03/01 02:32:05;;;;;;;19.17;14.00;;;6.00;61.10;;;;;;5075906;28;21002;-68
2022/03/01 02:34:32;;;;;;;24.57;15.53;;;6.00;60.00;;;;;;5077129;28;20457;-68
2022/03/01 02:36:59;;;;;;;20.90;14.57;;;6.00;59.90;;;;;;5076303;28;20444;-69
2022/03/01 02:39:27;;;;;;;21.60;14.70;;;6.00;59.90;;;;;;5076209;28;20842;-69
2022/03/01 02:41:54;;;;;;;20.20;14.97;;;6.00;60.10;;;;;;5076157;28;20464;-68
2022/03/01 02:44:21;;;;;;;19.10;13.63;;;5.90;60.60;;;;;;5076057;28;20477;-68
2022/03/01 02:46:48;;;;;;;19.70;12.40;;;5.90;60.90;;;;;;5075096;28;20460;-68
2022/03/01 02:49:15;;;;;;;21.33;14.23;;;5.90;61.70;;;;;;5076225;28;20452;-68
2022/03/01 02:51:42;;;;;;;15.80;13.07;;;5.90;61.80;;;;;;5075953;28;20838;-68
2022/03/01 02:54:09;;;;;;;21.70;14.37;;;5.90;62.10;;;;;;5076836;28;20446;-68
2022/03/01 02:56:39;;;;;;;19.73;13.53;;;5.90;62.10;;;;;;5075891;28;20456;-68
2022/03/01 02:59:06;;;;;;;20.30;15.00;;;5.90;61.70;;;;;;5076101;28;20504;-68
2022/03/01 03:01:32;;;;;;;21.10;13.40;;;5.90;61.50;;;;;;5075459;28;20951;-68
2022/03/01 03:04:00;;;;;;;16.10;12.30;;;5.90;61.30;;;;;;5075658;28;20483;-69
2022/03/01 03:06:27;;;;;;;16.90;12.93;;;5.90;61.50;;;;;;5075391;28;20923;-69
2022/03/01 03:08:53;;;;;;;22.70;15.23;;;5.90;61.50;;;;;;5075281;28;20814;-69
2022/03/01 03:11:20;;;;;;;16.90;13.43;;;5.90;61.90;;;;;;5075349;28;20460;-68
2022/03/01 03:13:48;;;;;;;18.27;13.67;;;5.80;61.80;;;;;;5075544;28;20455;-68
2022/03/01 03:16:16;;;;;;;18.80;13.30;;;5.80;61.80;;;;;;5075534;28;20445;-68
2022/03/01 03:18:43;;;;;;;20.37;14.67;;;5.70;61.90;;;;;;5075491;28;20506;-68
2022/03/01 03:21:10;;;;;;;14.90;12.03;;;5.70;62.20;;;;;;5075344;28;20467;-68
2022/03/01 03:23:37;;;;;;;16.57;12.77;;;5.70;62.50;;;;;;5075429;28;20499;-69
2022/03/01 03:26:04;;;;;;;17.97;12.87;;;5.60;62.90;;;;;;5075376;28;20462;-69
2022/03/01 03:28:31;;;;;;;20.00;13.10;;;5.60;63.40;;;;;;5075312;28;20444;-68
2022/03/01 03:30:59;;;;;;;18.47;14.00;;;5.60;63.80;;;;;;5075221;28;20460;-68
2022/03/01 03:33:26;;;;;;;17.23;12.60;;;5.60;64.00;;;;;;5075108;28;20445;-68
2022/03/01 03:35:54;;;;;;;20.20;13.67;;;5.60;64.20;;;;;;5074841;28;20452;-68
2022/03/01 03:38:21;;;;;;;21.13;13.40;;;5.60;64.30;;;;;;5075057;28;20799;-68
2022/03/01 03:40:47;;;;;;;14.90;12.40;;;5.50;64.50;;;;;;5075052;28;20461;-69
2022/03/01 03:43:14;;;;;;;19.70;13.03;;;5.50;64.70;;;;;;5074737;28;20938;-68
2022/03/01 03:45:41;;;;;;;18.53;12.83;;;5.50;65.50;;;;;;5075298;28;20481;-68
2022/03/01 03:48:09;;;;;;;23.10;13.27;;;5.50;66.10;;;;;;5074838;28;20485;-68
2022/03/01 03:50:36;;;;;;;16.80;12.10;;;5.50;66.80;;;;;;5074752;28;20468;-68
2022/03/01 03:53:03;;;;;;;15.77;12.63;;;5.50;67.30;;;;;;5074872;28;20441;-68
2022/03/01 03:55:30;;;;;;;17.43;11.70;;;5.50;67.90;;;;;;5074781;28;20437;-69
2022/03/01 03:57:57;;;;;;;15.90;12.30;;;5.50;68.20;;;;;;5074391;28;20444;-68
2022/03/01 04:00:24;;;;;;;15.50;11.60;;;5.60;68.10;;;;;;5074679;28;20471;-68
2022/03/01 04:02:51;;;;;;;14.47;10.60;;;5.60;68.30;;;;;;5074370;28;20900;-68
2022/03/01 04:05:20;;;;;;;14.37;11.77;;;5.60;68.30;;;;;;5074496;28;20523;-68
2022/03/01 04:07:48;;;;;;;15.03;11.93;;;5.60;69.40;;;;;;5074161;28;20471;-68
2022/03/01 04:10:16;;;;;;;15.00;11.43;;;5.60;68.40;;;;;;5074340;28;20465;-68
2022/03/01 04:12:43;;;;;;;16.43;11.23;;;5.60;68.50;;;;;;5074338;28;20457;-69
2022/03/01 04:15:11;;;;;;;14.67;11.57;;;5.60;68.70;;;;;;5073989;28;20440;-68
2022/03/01 04:17:38;;;;;;;15.33;10.90;;;5.70;68.70;;;;;;5073958;28;20547;-68
2022/03/01 04:20:06;;;;;;;16.63;11.50;;;5.70;68.90;;;;;;5074869;28;20472;-68
2022/03/01 04:22:34;;;;;;;17.40;10.73;;;5.70;68.60;;;;;;5074214;28;20456;-68
2022/03/01 04:25:01;;;;;;;16.57;11.70;;;5.70;67.90;;;;;;5074069;28;20488;-68
2022/03/01 04:27:27;;;;;;;14.23;10.63;;;5.80;67.80;;;;;;5074133;28;20449;-68
2022/03/01 04:29:54;;;;;;;13.60;11.23;;;5.80;67.40;;;;;;5074084;28;20463;-68
2022/03/01 04:32:21;;;;;;;15.87;11.43;;;5.80;67.30;;;;;;5074108;28;20452;-68
2022/03/01 04:34:48;;;;;;;14.07;11.10;;;5.80;67.30;;;;;;5074196;28;20806;-69
2022/03/01 04:37:14;;;;;;;14.13;11.30;;;5.80;67.30;;;;;;5074417;28;20440;-68
2022/03/01 04:39:42;;;;;;;14.23;10.93;;;5.80;67.30;;;;;;5074048;28;20457;-68
2022/03/01 04:42:09;;;;;;;16.27;10.40;;;5.80;67.30;;;;;;5074729;28;20469;-68
2022/03/01 04:44:36;;;;;;;15.27;10.53;;;5.80;67.40;;;;;;5074997;28;20488;-68
2022/03/01 04:47:04;;;;;;;14.43;10.20;;;5.80;67.30;;;;;;5075811;28;20803;-68
2022/03/01 04:49:32;;;;;;;13.90;10.57;;;5.80;67.50;;;;;;5076417;28;20516;-68
2022/03/01 04:51:59;;;;;;;13.57;9.97;;;5.80;67.50;;;;;;5075309;28;20468;-68
2022/03/01 04:54:26;;;;;;;13.30;10.53;;;5.80;67.80;;;;;;5074533;28;20441;-68
2022/03/01 04:56:54;;;;;;;14.60;10.80;;;5.80;67.70;;;;;;5074610;28;20443;-68
2022/03/01 04:59:21;;;;;;;12.43;11.13;;;5.80;67.60;;;;;;5074691;28;20452;-68
2022/03/01 05:01:47;;;;;;;13.97;10.90;;;5.90;67.60;;;;;;5074029;28;20465;-68
2022/03/01 05:04:14;;;;;;;15.73;10.67;;;5.80;67.20;;;;;;5073905;28;20457;-68
2022/03/01 05:06:41;;;;;;;13.87;10.27;;;5.80;67.20;;;;;;5073904;28;20448;-68
2022/03/01 05:09:08;;;;;;;13.30;9.50;;;5.90;67.30;;;;;;5073721;28;20524;-68
2022/03/01 05:11:35;;;;;;;14.07;9.73;;;5.90;67.10;;;;;;5073290;28;20472;-68
2022/03/01 05:14:03;;;;;;;14.67;10.57;;;5.90;66.80;;;;;;5073790;28;20456;-68
2022/03/01 05:16:30;;;;;;;11.47;9.40;;;5.90;67.00;;;;;;5073313;28;20432;-68
2022/03/01 05:18:57;;;;;;;12.70;10.63;;;5.90;66.80;;;;;;5073273;28;20519;-68
2022/03/01 05:21:24;;;;;;;13.07;9.30;;;6.00;66.70;;;;;;5073644;28;20471;-68
2022/03/01 05:23:51;;;;;;;12.80;10.87;;;6.00;66.60;;;;;;5073523;28;20452;-68
2022/03/01 05:26:18;;;;;;;13.83;10.27;;;5.90;66.70;;;;;;5073510;28;20473;-69
2022/03/01 05:28:45;;;;;;;11.97;9.50;;;6.00;66.90;;;;;;5073387;28;20526;-69
2022/03/01 05:31:13;;;;;;;12.40;9.43;;;6.00;66.30;;;;;;5073359;28;20469;-68
2022/03/01 05:33:40;;;;;;;12.40;9.30;;;6.00;65.90;;;;;;5073413;28;20433;-68
2022/03/01 05:36:07;;;;;;;13.87;10.40;;;6.00;66.70;;;;;;5072946;28;20810;-68
2022/03/01 05:38:34;;;;;;;12.07;10.00;;;6.00;66.90;;;;;;5073238;28;20448;-68
2022/03/01 05:41:01;;;;;;;12.40;10.10;;;6.00;67.20;;;;;;5072849;28;20976;-68
2022/03/01 05:43:28;;;;;;;11.83;9.63;;;6.00;66.50;;;;;;5073235;28;20432;-68
2022/03/01 05:45:54;;;;;;;11.47;9.67;;;6.00;66.30;;;;;;5072665;28;20480;-68
2022/03/01 05:48:23;;;;;;;13.03;9.63;;;6.00;66.60;;;;;;5072742;28;21005;-68
2022/03/01 05:50:50;;;;;;;12.27;9.63;;;6.00;66.40;;;;;;5072970;28;20479;-68
2022/03/01 05:53:17;;;;;;;13.93;9.50;;;6.00;66.40;;;;;;5073260;28;20441;-69
2022/03/01 05:55:43;;;;;;;16.07;10.47;;;6.00;66.70;;;;;;5073076;28;20436;-68
2022/03/01 05:58:10;;;;;;;10.80;8.53;;;6.00;66.70;;;;;;5072863;28;20443;-68
2022/03/01 06:00:37;;;;;;;15.10;10.33;;;6.00;66.70;;;;;;5073050;28;20487;-68
2022/03/01 06:03:04;;;;;;;13.50;9.63;;;6.00;66.50;;;;;;5073006;28;20454;-69
2022/03/01 06:05:32;;;;;;;10.13;8.80;;;5.90;65.60;;;;;;5072844;28;20476;-68
2022/03/01 06:07:59;;;;;;;13.10;9.93;;;6.00;66.20;;;;;;5072754;28;20468;-68
2022/03/01 06:10:27;;;;;;;13.00;9.60;;;5.90;66.40;;;;;;5072904;28;20475;-68
2022/03/01 06:12:54;;;;;;;11.60;9.30;;;5.90;66.60;;;;;;5072917;28;20812;-68
2022/03/01 06:15:21;;;;;;;13.30;8.80;;;6.00;66.60;;;;;;5072608;28;20440;-68
2022/03/01 06:17:47;;;;;;;11.90;9.97;;;6.00;66.20;;;;;;5072893;28;20499;-68
2022/03/01 06:20:14;;;;;;;14.03;10.30;;;6.00;66.00;;;;;;5072813;28;20464;-70
2022/03/01 06:22:42;;;;;;;16.00;11.43;;;6.00;66.40;;;;;;5074683;28;20448;-69
2022/03/01 06:25:10;;;;;;;12.83;9.60;;;5.90;66.30;;;;;;5076402;28;20903;-68
2022/03/01 06:27:38;;;;;;;10.00;8.70;;;5.90;66.70;;;;;;5076155;28;20461;-68
2022/03/01 06:30:07;;;;;;;11.13;8.60;;;5.90;67.00;;;;;;5076058;28;20456;-68
2022/03/01 06:32:34;;;;;;;14.80;9.57;;;6.00;66.80;;;;;;5076325;28;20476;-68
2022/03/01 06:35:01;;;;;;;11.50;8.77;;;6.00;66.10;;;;;;5076263;28;20455;-68
2022/03/01 06:37:28;;;;;;;12.67;9.83;;;6.00;66.10;;;;;;5076305;28;20463;-68
2022/03/01 06:39:56;;;;;;;13.40;9.83;;;6.00;65.30;;;;;;5076061;28;20480;-68
2022/03/01 06:42:23;;;;;;;11.13;8.60;;;6.00;65.80;;;;;;5075827;28;20451;-68
2022/03/01 06:44:49;;;;;;;12.10;9.53;;;6.00;65.30;;;;;;5076630;28;20453;-68
2022/03/01 06:47:18;;;;;;;12.83;9.73;;;6.00;65.70;;;;;;5076168;28;20811;-70
2022/03/01 06:49:45;;;;;;;12.47;9.67;;;6.00;65.60;;;;;;5076008;28;20453;-69
2022/03/01 06:52:11;;;;;;;11.83;9.43;;;6.10;65.60;;;;;;5075974;28;20449;-69
2022/03/01 06:54:38;;;;;;;12.03;9.97;;;6.10;65.40;;;;;;5076043;28;20429;-68
2022/03/01 06:57:06;;;;;;;14.60;9.17;;;6.00;65.10;;;;;;5076010;28;20437;-68
2022/03/01 06:59:33;;;;;;;14.00;9.87;;;6.10;65.40;;;;;;5075504;28;20451;-68
2022/03/01 07:02:00;;;;;;;11.80;9.53;;;6.00;65.80;;;;;;5075720;28;20468;-69
2022/03/01 07:04:27;;;;;;;14.13;9.90;;;6.00;65.80;;;;;;5075748;28;20789;-69
2022/03/01 07:06:54;;;;;;;13.47;9.33;;;6.00;65.80;;;;;;5075414;28;20484;-69
2022/03/01 07:09:21;;;;;;;11.30;9.30;;;6.00;65.80;;;;;;5075735;28;20440;-69
2022/03/01 07:11:48;;;;;;;12.53;10.33;;;6.00;65.30;;;;;;5075670;28;20563;-68
2022/03/01 07:14:16;;;;;;;16.40;9.57;;;6.00;65.60;;;;;;5075674;28;20453;-68
2022/03/01 07:16:44;;;;;;;14.90;10.10;;;6.10;64.50;;;;;;5075464;28;20932;-68
2022/03/01 07:19:10;;;;;;;14.43;9.57;;;6.00;64.20;;;;;;5075710;28;20789;-69
2022/03/01 07:21:37;;;;;;;14.40;10.30;;;6.10;64.70;;;;;;5075198;28;20971;-68
2022/03/01 07:24:04;;;;;;;13.40;9.73;;;6.10;64.90;;;;;;5075558;28;20452;-69
2022/03/01 07:26:31;;;;;;;12.63;9.37;;;6.10;64.60;;;;;;5075334;28;20488;-69
2022/03/01 07:28:58;;;;;;;14.43;9.87;;;6.10;65.80;;;;;;5075425;28;20441;-69
2022/03/01 07:31:26;;;;;;;13.00;9.43;;;6.10;65.70;;;;;;5075188;28;20526;-68
2022/03/01 07:33:53;;;;;;;14.23;10.73;;;6.20;65.30;;;;;;5074883;28;20444;-68
2022/03/01 07:36:19;;;;;;;14.03;9.83;;;6.20;65.30;;;;;;5075199;28;20445;-68
2022/03/01 07:38:46;;;;;;;12.47;9.60;;;6.20;65.10;;;;;;5075088;28;20448;-68
2022/03/01 07:41:13;;;;;;;12.40;9.97;;;6.30;64.40;;;;;;5074881;28;20480;-68
2022/03/01 07:43:40;;;;;;;13.00;9.87;;;6.30;64.10;;;;;;5075010;28;20440;-69
2022/03/01 07:46:11;;;;;;;14.07;9.83;;;6.30;64.60;;;;;;5074568;28;21029;-69
2022/03/01 07:48:40;;;;;;;11.90;10.00;;;6.30;64.80;;;;;;5074924;28;20440;-69
2022/03/01 07:51:07;;;;;;;14.30;9.27;;;6.40;64.50;;;;;;5074501;28;20449;-69
2022/03/01 07:53:34;;;;;;;14.57;10.30;;;6.40;64.20;;;;;;5074689;28;20441;-69
2022/03/01 07:56:01;;;;;;;11.83;9.10;;;6.40;64.20;;;;;;5074401;28;20962;-69
2022/03/01 07:58:28;;;;;;;15.13;10.00;;;6.50;64.20;;;;;;5074659;28;20444;-69
2022/03/01 08:00:54;;;;;;;14.87;10.80;;;6.50;63.80;;;;;;5074648;28;20476;-68
2022/03/01 08:03:21;;;;;;;17.67;9.43;;;6.60;63.50;;;;;;5074643;28;20452;-69
2022/03/01 08:05:49;;;;;;;15.57;10.80;;;6.60;63.10;;;;;;5074524;28;20488;-69
2022/03/01 08:08:16;;;;;;;16.30;11.43;;;6.70;62.60;;;;;;5074245;28;20457;-69
2022/03/01 08:10:43;;;;;;;13.70;9.60;;;6.70;62.10;;;;;;5074514;28;20473;-68
2022/03/01 08:13:09;;;;;;;13.23;10.20;;;6.80;61.60;;;;;;5074781;28;20956;-68
2022/03/01 08:15:38;;;;;;;15.93;10.47;;;6.90;62.20;;;;;;5074850;28;20437;-68
2022/03/01 08:18:05;;;;;;;15.83;10.43;;;7.00;62.70;;;;;;5075020;28;20452;-69
2022/03/01 08:20:32;;;;;;;16.43;10.90;;;7.10;62.70;;;;;;5075468;28;20468;-68
2022/03/01 08:23:02;;;;;;;15.70;11.30;;;7.20;62.40;;;;;;5076152;28;20445;-68
2022/03/01 08:25:29;;;;;;;13.00;9.73;;;7.40;61.00;;;;;;5077139;28;20440;-69
2022/03/01 08:27:57;;;;;;;13.10;9.80;;;7.50;60.10;;;;;;5075874;28;20453;-69
2022/03/01 08:30:24;;;;;;;14.10;11.20;;;7.70;59.10;;;;;;5074950;28;20464;-68
2022/03/01 08:32:51;;;;;;;16.60;10.30;;;7.70;58.90;;;;;;5074594;28;20792;-69
2022/03/01 08:35:18;;;;;;;12.23;9.60;;;7.80;59.00;;;;;;5074193;28;20448;-69
2022/03/01 08:37:44;;;;;;;17.80;10.70;;;8.00;59.30;;;;;;5073759;28;20781;-69
2022/03/01 08:40:14;;;;;;;14.70;10.63;;;8.10;59.20;;;;;;5073948;28;20475;-68
2022/03/01 08:42:41;;;;;;;15.57;10.20;;;8.20;58.90;;;;;;5073912;28;20460;-69
2022/03/01 08:45:09;;;;;;;12.63;10.40;;;8.40;58.50;;;;;;5072847;28;20455;-69
2022/03/01 08:47:37;;;;;;;13.43;10.07;;;8.50;58.20;;;;;;5073739;28;20835;-69
2022/03/01 08:50:05;;;;;;;12.77;10.70;;;8.70;58.40;;;;;;5073774;28;20448;-68
2022/03/01 08:52:32;;;;;;;17.83;10.47;;;8.80;58.10;;;;;;5073707;28;20448;-69
2022/03/01 08:54:59;;;;;;;17.40;10.40;;;8.90;57.80;;;;;;5073712;28;20456;-69
2022/03/01 08:57:27;;;;;;;15.07;10.97;;;9.10;57.80;;;;;;5073454;28;20437;-69
2022/03/01 08:59:53;;;;;;;16.97;11.40;;;9.20;57.20;;;;;;5073244;28;20445;-68
2022/03/01 09:02:20;;;;;;;15.63;12.43;;;9.30;57.00;;;;;;5073589;28;20456;-69
2022/03/01 09:04:47;;;;;;;14.40;11.47;;;9.40;56.90;;;;;;5073616;28;20962;-69
2022/03/01 09:07:14;;;;;;;16.83;11.50;;;9.50;55.70;;;;;;5073295;28;20485;-69
2022/03/01 09:09:41;;;;;;;15.17;11.80;;;9.50;55.00;;;;;;5073526;28;20453;-69
2022/03/01 09:12:08;;;;;;;12.57;9.20;;;9.60;55.50;;;;;;5073377;28;20477;-69
2022/03/01 09:14:36;;;;;;;13.77;10.30;;;9.60;55.90;;;;;;5073185;28;20444;-69
2022/03/01 09:17:04;;;;;;;13.97;10.97;;;9.70;56.00;;;;;;5073156;28;20931;-69
2022/03/01 09:19:30;;;;;;;16.50;10.97;;;9.70;56.00;;;;;;5073438;28;20865;-69
2022/03/01 09:21:57;;;;;;;14.00;10.90;;;9.70;56.00;;;;;;5074256;28;20469;-69
2022/03/01 09:24:24;;;;;;;17.53;12.37;;;9.70;55.90;;;;;;5073321;28;20449;-69
2022/03/01 09:26:51;;;;;;;14.23;10.30;;;9.60;55.60;;;;;;5073259;28;20476;-69
2022/03/01 09:29:17;;;;;;;14.13;11.13;;;9.60;55.50;;;;;;5073363;28;20444;-69
2022/03/01 09:31:45;;;;;;;16.10;11.20;;;9.50;55.70;;;;;;5072984;28;20865;-69
2022/03/01 09:34:12;;;;;;;12.27;10.60;;;9.60;55.90;;;;;;5073336;28;20436;-69
2022/03/01 09:36:39;;;;;;;13.70;9.97;;;9.60;56.10;;;;;;5072981;28;20441;-69
2022/03/01 09:39:06;;;;;;;16.17;10.30;;;9.60;56.20;;;;;;5073236;28;20449;-69
2022/03/01 09:41:33;;;;;;;15.00;10.40;;;9.70;56.10;;;;;;5073105;28;20469;-69
2022/03/01 09:44:01;;;;;;;15.63;10.53;;;9.80;55.80;;;;;;5072978;28;20451;-69
2022/03/01 09:46:28;;;;;;;13.77;10.50;;;10.00;54.90;;;;;;5073305;28;20850;-69
2022/03/01 09:48:56;;;;;;;16.00;10.90;;;10.20;54.40;;;;;;5073157;28;20448;-69
2022/03/01 09:51:24;;;;;;;12.83;10.80;;;10.40;52.80;;;;;;5072764;28;20998;-69
2022/03/01 09:53:52;;;;;;;12.73;10.17;;;10.70;52.40;;;;;;5073110;28;20453;-69
2022/03/01 09:56:19;;;;;;;15.40;11.50;;;11.00;51.90;;;;;;5074870;28;20448;-69
2022/03/01 09:58:47;;;;;;;13.10;10.43;;;11.30;51.00;;;;;;5077088;28;20452;-69
2022/03/01 10:01:16;;;;;;;14.57;10.67;;;11.60;50.40;;;;;;5076962;28;20808;-69
2022/03/01 10:03:48;;;;;;;11.33;9.67;;;11.70;50.30;;;;;;5077022;28;20447;-69
2022/03/01 10:06:17;;;;;;;11.43;10.23;;;11.90;50.10;;;;;;5076876;28;20468;-69
2022/03/01 10:08:45;;;;;;;13.97;11.30;;;12.00;49.70;;;;;;5076488;28;20457;-69
2022/03/01 10:11:12;;;;;;;14.10;11.07;;;12.10;48.40;;;;;;5076648;28;20460;-69
2022/03/01 10:13:41;;;;;;;18.07;11.77;;;12.10;48.30;;;;;;5076743;28;20455;-69
2022/03/01 10:16:10;;;;;;;12.80;10.00;;;12.10;47.70;;;;;;5076857;28;20452;-69
2022/03/01 10:18:38;;;;;;;13.37;10.13;;;12.10;47.80;;;;;;5076728;28;20449;-69
2022/03/01 10:21:09;;;;;;;13.17;10.43;;;12.10;48.00;;;;;;5076502;28;20464;-69
2022/03/01 10:23:38;;;;;;;13.47;10.00;;;12.10;48.10;;;;;;5076635;28;20433;-69
2022/03/01 10:26:15;;;;;;;13.40;9.90;;;12.20;48.20;;;;;;5076072;28;20971;-69
2022/03/01 10:28:42;;;;;;;14.63;11.50;;;12.20;47.60;;;;;;5076328;28;20919;-69
2022/03/01 10:31:14;;;;;;;13.77;9.63;;;12.30;47.40;;;;;;5076624;28;20491;-69
2022/03/01 10:33:52;;;;;;;15.90;10.30;;;12.30;47.10;;;;;;5076269;28;20425;-70
2022/03/01 10:36:21;;;;;;;12.33;10.07;;;12.40;47.30;;;;;;5076240;28;20904;-69
2022/03/01 10:38:55;;;;;;;12.73;10.43;;;12.60;47.40;;;;;;5076713;28;20905;-69
2022/03/01 10:41:25;;;;;;;12.93;10.17;;;12.70;47.20;;;;;;5076221;28;20479;-69
2022/03/01 10:43:53;;;;;;;15.27;10.80;;;12.80;47.00;;;;;;5076262;28;20452;-69
2022/03/01 10:46:20;;;;;;;13.13;10.30;;;12.90;46.80;;;;;;5076081;28;20549;-69
2022/03/01 10:48:47;;;;;;;15.67;12.70;;;13.10;46.40;;;;;;5075796;28;20939;-69
2022/03/01 10:51:19;;;;;;;12.50;10.50;;;13.20;46.20;;;;;;5076050;28;20468;-69
2022/03/01 10:53:46;;;;;;;12.23;10.20;;;13.30;45.70;;;;;;5075710;28;20458;-69
2022/03/01 10:56:16;;;;;;;12.70;9.40;;;13.40;45.50;;;;;;5075639;28;20819;-69
2022/03/01 10:58:44;;;;;;;13.73;11.37;;;13.50;45.80;;;;;;5076034;28;20445;-69
2022/03/01 11:01:12;;;;;;;14.53;10.10;;;13.60;45.20;;;;;;5075516;28;21010;-69
2022/03/01 11:03:40;;;;;;;12.10;9.50;;;13.70;44.80;;;;;;5075733;28;20440;-69
2022/03/01 11:06:07;;;;;;;13.33;10.93;;;13.80;44.30;;;;;;5075815;28;20441;-69
2022/03/01 11:08:36;;;;;;;12.73;10.00;;;14.00;43.90;;;;;;5074643;28;20456;-69
2022/03/01 11:11:05;;;;;;;13.13;11.00;;;14.20;41.90;;;;;;5075606;28;20530;-69
2022/03/01 11:13:36;;;;;;;17.03;10.20;;;14.60;42.00;;;;;;5075664;28;20457;-70
2022/03/01 11:16:23;;;;;;;14.17;10.63;;;14.80;41.20;;;;;;5075643;28;20432;-70
2022/03/01 11:18:54;;;;;;;13.37;9.90;;;15.00;40.90;;;;;;5075246;28;20808;-70
2022/03/01 11:21:23;;;;;;;13.03;10.63;;;15.10;40.80;;;;;;5075386;28;20518;-69
2022/03/01 11:23:54;;;;;;;13.30;10.37;;;15.10;40.70;;;;;;5075523;28;20441;-69
2022/03/01 11:26:20;;;;;;;13.77;10.53;;;15.10;40.50;;;;;;5075359;28;20762;-70
2022/03/01 11:28:56;;;;;;;13.17;9.93;;;15.20;40.60;;;;;;5075338;28;20453;-70
2022/03/01 11:31:25;;;;;;;12.90;10.00;;;15.20;40.00;;;;;;5075231;28;20468;-69
2022/03/01 11:33:57;;;;;;;12.27;10.30;;;15.20;40.30;;;;;;5075294;28;20452;-69
2022/03/01 11:36:27;;;;;;;11.93;9.70;;;15.20;40.40;;;;;;5074866;28;20440;-70
2022/03/01 11:38:54;;;;;;;15.57;10.50;;;15.30;40.00;;;;;;5075388;28;20453;-70
2022/03/01 11:41:22;;;;;;;13.07;10.07;;;15.40;40.00;;;;;;5074976;28;20468;-69
2022/03/01 11:43:56;;;;;;;12.20;9.70;;;15.60;40.10;;;;;;5075064;28;20445;-70
2022/03/01 11:46:23;;;;;;;11.90;9.53;;;15.70;40.00;;;;;;5074860;28;20449;-70
2022/03/01 11:48:55;;;;;;;10.80;9.70;;;15.80;39.80;;;;;;5075083;28;20448;-69
2022/03/01 11:51:34;;;;;;;10.27;9.17;;;15.80;39.50;;;;;;5075012;28;20471;-69
2022/03/01 11:54:06;;;;;;;10.83;9.70;;;15.80;39.50;;;;;;5075122;28;20502;-69
2022/03/01 11:56:33;;;;;;;14.27;10.53;;;15.80;39.30;;;;;;5075239;28;20516;-69
2022/03/01 11:59:07;;;;;;;14.00;10.67;;;15.80;39.70;;;;;;5075531;28;20456;-69
2022/03/01 12:01:34;;;;;;;12.60;10.20;;;15.80;38.80;;;;;;5076119;28;20461;-69
2022/03/01 12:04:03;;;;;;;12.50;10.60;;;15.80;39.30;;;;;;5076443;28;20448;-69
2022/03/01 12:06:31;;;;;;;11.13;9.23;;;15.80;38.80;;;;;;5075710;28;20916;-69
2022/03/01 12:08:59;;;;;;;14.17;10.37;;;15.90;37.70;;;;;;5075519;28;20559;-69
2022/03/01 12:11:34;;;;;;;15.77;10.60;;;16.00;35.90;;;;;;5075553;28;20499;-69
2022/03/01 12:14:07;;;;;;;11.87;10.67;;;16.10;35.50;;;;;;5074763;28;20514;-69
2022/03/01 12:16:35;;;;;;;12.47;8.53;;;16.00;33.50;;;;;;5074547;28;20457;-69
2022/03/01 12:19:11;;;;;;;15.03;9.93;;;15.70;34.20;;;;;;5074158;28;20826;-69
2022/03/01 12:21:39;;;;;;;13.00;10.50;;;15.60;36.00;;;;;;5074372;28;20468;-69
2022/03/01 12:24:07;;;;;;;13.40;10.60;;;15.60;37.00;;;;;;5074282;28;20440;-69
2022/03/01 12:26:43;;;;;;;11.27;10.03;;;15.60;36.20;;;;;;5074164;28;20445;-69
2022/03/01 12:29:12;;;;;;;11.70;9.40;;;15.50;35.00;;;;;;5074157;28;20433;-69
2022/03/01 12:31:39;;;;;;;10.80;9.70;;;15.50;35.30;;;;;;5073746;28;21013;-69
2022/03/01 12:34:08;;;;;;;10.33;9.07;;;15.60;36.90;;;;;;5074085;28;20451;-69
2022/03/01 12:36:36;;;;;;;12.43;8.80;;;16.00;37.20;;;;;;5073723;28;20451;-69
2022/03/01 12:39:06;;;;;;;11.10;9.40;;;16.50;36.60;;;;;;5073965;28;20448;-69
2022/03/01 12:41:33;;;;;;;11.77;9.70;;;17.10;35.80;;;;;;5073911;28;20468;-69